sensor_id;sensor_type;location;lat;lon;timestamp;temperature;humidity
23873;DHT22;42884;50.718;4.630;2024-01-27T00:00:05;1.80;99.90
23873;DHT22;42884;50.718;4.630;2024-01-27T00:02:31;1.80;99.90
23873;DHT22;42884;50.718;4.630;2024-01-27T00:04:57;1.80;99.90
23873;DHT22;42884;50.718;4.630;2024-01-27T00:07:22;1.80;99.90
23873;DHT22;42884;50.718;4.630;2024-01-27T00:09:48;1.80;99.90
23873;DHT22;42884;50.718;4.630;2024-01-27T00:12:14;1.80;99.90
23873;DHT22;42884;50.718;4.630;2024-01-27T00:14:40;1.70;99.90
23873;DHT22;42884;50.718;4.630;2024-01-27T00:17:05;1.70;99.90
23873;DHT22;42884;50.718;4.630;2024-01-27T00:19:31;1.70;99.90
23873;DHT22;42884;50.718;4.630;2024-01-27T00:21:57;1.70;99.90
23873;DHT22;42884;50.718;4.630;2024-01-27T00:24:24;1.70;99.90
23873;DHT22;42884;50.718;4.630;2024-01-27T00:26:49;1.70;99.90
23873;DHT22;42884;50.718;4.630;2024-01-27T00:29:15;1.60;99.90
23873;DHT22;42884;50.718;4.630;2024-01-27T00:31:41;1.60;99.90
23873;DHT22;42884;50.718;4.630;2024-01-27T00:34:07;1.60;99.90
23873;DHT22;42884;50.718;4.630;2024-01-27T00:36:32;1.70;99.90
23873;DHT22;42884;50.718;4.630;2024-01-27T00:38:58;1.60;99.90
23873;DHT22;42884;50.718;4.630;2024-01-27T00:41:23;1.60;99.90
23873;DHT22;42884;50.718;4.630;2024-01-27T00:43:49;1.70;99.90
23873;DHT22;42884;50.718;4.630;2024-01-27T00:46:15;1.70;99.90
23873;DHT22;42884;50.718;4.630;2024-01-27T00:48:40;1.70;99.90
23873;DHT22;42884;50.718;4.630;2024-01-27T00:51:07;1.60;99.90
23873;DHT22;42884;50.718;4.630;2024-01-27T00:53:33;1.60;99.90
23873;DHT22;42884;50.718;4.630;2024-01-27T00:55:59;1.60;99.90
23873;DHT22;42884;50.718;4.630;2024-01-27T00:58:24;1.60;99.90
23873;DHT22;42884;50.718;4.630;2024-01-27T01:00:50;1.70;99.90
23873;DHT22;42884;50.718;4.630;2024-01-27T01:03:16;1.60;99.90
23873;DHT22;42884;50.718;4.630;2024-01-27T01:05:41;1.60;99.90
23873;DHT22;42884;50.718;4.630;2024-01-27T01:08:07;1.50;99.90
23873;DHT22;42884;50.718;4.630;2024-01-27T01:10:33;1.60;99.90
23873;DHT22;42884;50.718;4.630;2024-01-27T01:12:58;1.50;99.90
23873;DHT22;42884;50.718;4.630;2024-01-27T01:15:24;1.50;99.90
23873;DHT22;42884;50.718;4.630;2024-01-27T01:17:50;1.50;99.90
23873;DHT22;42884;50.718;4.630;2024-01-27T01:20:16;1.40;99.90
23873;DHT22;42884;50.718;4.630;2024-01-27T01:22:41;1.30;99.90
23873;DHT22;42884;50.718;4.630;2024-01-27T01:25:07;1.40;99.90
23873;DHT22;42884;50.718;4.630;2024-01-27T01:27:33;1.50;99.90
23873;DHT22;42884;50.718;4.630;2024-01-27T01:29:58;1.50;99.90
23873;DHT22;42884;50.718;4.630;2024-01-27T01:32:24;1.50;99.90
23873;DHT22;42884;50.718;4.630;2024-01-27T01:34:50;0.80;99.90
23873;DHT22;42884;50.718;4.630;2024-01-27T01:37:16;1.40;99.90
23873;DHT22;42884;50.718;4.630;2024-01-27T01:39:41;1.50;99.90
23873;DHT22;42884;50.718;4.630;2024-01-27T01:42:07;1.40;99.90
23873;DHT22;42884;50.718;4.630;2024-01-27T01:44:33;1.50;99.90
23873;DHT22;42884;50.718;4.630;2024-01-27T01:46:58;1.50;99.90
23873;DHT22;42884;50.718;4.630;2024-01-27T01:49:24;1.50;99.90
23873;DHT22;42884;50.718;4.630;2024-01-27T01:51:50;1.50;99.90
23873;DHT22;42884;50.718;4.630;2024-01-27T01:54:15;1.40;99.90
23873;DHT22;42884;50.718;4.630;2024-01-27T01:56:44;1.30;99.90
23873;DHT22;42884;50.718;4.630;2024-01-27T01:59:10;1.40;99.90
23873;DHT22;42884;50.718;4.630;2024-01-27T02:01:36;1.30;99.90
23873;DHT22;42884;50.718;4.630;2024-01-27T02:04:01;1.30;99.90
23873;DHT22;42884;50.718;4.630;2024-01-27T02:06:29;1.30;99.90
23873;DHT22;42884;50.718;4.630;2024-01-27T02:08:55;1.40;99.90
23873;DHT22;42884;50.718;4.630;2024-01-27T02:11:21;1.30;99.90
23873;DHT22;42884;50.718;4.630;2024-01-27T02:13:47;1.30;99.90
23873;DHT22;42884;50.718;4.630;2024-01-27T02:16:13;1.30;99.90
23873;DHT22;42884;50.718;4.630;2024-01-27T02:18:39;1.30;99.90
23873;DHT22;42884;50.718;4.630;2024-01-27T02:21:05;1.30;99.90
23873;DHT22;42884;50.718;4.630;2024-01-27T02:23:31;1.30;99.90
23873;DHT22;42884;50.718;4.630;2024-01-27T02:25:56;1.30;99.90
23873;DHT22;42884;50.718;4.630;2024-01-27T02:28:23;1.30;99.90
23873;DHT22;42884;50.718;4.630;2024-01-27T02:30:49;1.30;99.90
23873;DHT22;42884;50.718;4.630;2024-01-27T02:33:15;1.20;99.90
23873;DHT22;42884;50.718;4.630;2024-01-27T02:35:40;1.10;99.90
23873;DHT22;42884;50.718;4.630;2024-01-27T02:38:06;1.20;99.90
23873;DHT22;42884;50.718;4.630;2024-01-27T02:40:32;1.10;99.90
23873;DHT22;42884;50.718;4.630;2024-01-27T02:42:57;1.20;99.90
23873;DHT22;42884;50.718;4.630;2024-01-27T02:45:23;1.20;99.90
23873;DHT22;42884;50.718;4.630;2024-01-27T02:47:50;1.10;99.90
23873;DHT22;42884;50.718;4.630;2024-01-27T02:50:15;1.10;99.90
23873;DHT22;42884;50.718;4.630;2024-01-27T02:52:41;1.10;99.90
23873;DHT22;42884;50.718;4.630;2024-01-27T02:55:07;1.10;99.90
23873;DHT22;42884;50.718;4.630;2024-01-27T02:57:33;1.10;99.90
23873;DHT22;42884;50.718;4.630;2024-01-27T02:59:58;1.10;99.90
23873;DHT22;42884;50.718;4.630;2024-01-27T03:02:24;1.10;99.90
23873;DHT22;42884;50.718;4.630;2024-01-27T03:04:49;1.10;99.90
23873;DHT22;42884;50.718;4.630;2024-01-27T03:07:15;1.10;99.90
23873;DHT22;42884;50.718;4.630;2024-01-27T03:09:41;1.10;99.90
23873;DHT22;42884;50.718;4.630;2024-01-27T03:12:07;1.00;99.90
23873;DHT22;42884;50.718;4.630;2024-01-27T03:14:33;1.90;99.90
23873;DHT22;42884;50.718;4.630;2024-01-27T03:16:58;1.10;99.90
23873;DHT22;42884;50.718;4.630;2024-01-27T03:19:24;1.00;99.90
23873;DHT22;42884;50.718;4.630;2024-01-27T03:21:50;1.10;99.90
23873;DHT22;42884;50.718;4.630;2024-01-27T03:24:15;1.00;99.90
23873;DHT22;42884;50.718;4.630;2024-01-27T03:26:41;1.00;99.90
23873;DHT22;42884;50.718;4.630;2024-01-27T03:29:07;1.10;99.90
23873;DHT22;42884;50.718;4.630;2024-01-27T03:31:33;1.00;99.90
23873;DHT22;42884;50.718;4.630;2024-01-27T03:34:00;1.00;99.90
23873;DHT22;42884;50.718;4.630;2024-01-27T03:36:25;1.00;99.90
23873;DHT22;42884;50.718;4.630;2024-01-27T03:38:51;1.00;99.90
23873;DHT22;42884;50.718;4.630;2024-01-27T03:41:17;1.00;99.90
23873;DHT22;42884;50.718;4.630;2024-01-27T03:43:43;1.00;99.90
23873;DHT22;42884;50.718;4.630;2024-01-27T03:46:08;1.00;99.90
23873;DHT22;42884;50.718;4.630;2024-01-27T03:48:34;1.00;99.90
23873;DHT22;42884;50.718;4.630;2024-01-27T03:51:03;1.10;99.90
23873;DHT22;42884;50.718;4.630;2024-01-27T03:53:29;1.00;99.90
23873;DHT22;42884;50.718;4.630;2024-01-27T03:55:55;0.90;99.90
23873;DHT22;42884;50.718;4.630;2024-01-27T03:58:24;0.90;99.90
23873;DHT22;42884;50.718;4.630;2024-01-27T04:00:49;1.00;99.90
23873;DHT22;42884;50.718;4.630;2024-01-27T04:03:15;0.20;99.90
23873;DHT22;42884;50.718;4.630;2024-01-27T04:05:44;0.90;99.90
23873;DHT22;42884;50.718;4.630;2024-01-27T04:08:09;0.90;99.90
23873;DHT22;42884;50.718;4.630;2024-01-27T04:10:36;0.90;99.90
23873;DHT22;42884;50.718;4.630;2024-01-27T04:13:01;0.80;99.90
23873;DHT22;42884;50.718;4.630;2024-01-27T04:15:27;0.90;99.90
23873;DHT22;42884;50.718;4.630;2024-01-27T04:17:53;0.90;99.90
23873;DHT22;42884;50.718;4.630;2024-01-27T04:20:19;0.90;99.90
23873;DHT22;42884;50.718;4.630;2024-01-27T04:22:45;0.80;99.90
23873;DHT22;42884;50.718;4.630;2024-01-27T04:25:11;0.80;99.90
23873;DHT22;42884;50.718;4.630;2024-01-27T04:27:37;0.80;99.90
23873;DHT22;42884;50.718;4.630;2024-01-27T04:30:06;0.90;99.90
23873;DHT22;42884;50.718;4.630;2024-01-27T04:32:32;0.90;99.90
23873;DHT22;42884;50.718;4.630;2024-01-27T04:34:58;0.90;99.90
23873;DHT22;42884;50.718;4.630;2024-01-27T04:37:23;0.90;99.90
23873;DHT22;42884;50.718;4.630;2024-01-27T04:39:49;0.80;99.90
23873;DHT22;42884;50.718;4.630;2024-01-27T04:42:15;0.80;99.90
23873;DHT22;42884;50.718;4.630;2024-01-27T04:44:41;0.80;99.90
23873;DHT22;42884;50.718;4.630;2024-01-27T04:47:07;0.70;99.90
23873;DHT22;42884;50.718;4.630;2024-01-27T04:49:33;0.70;99.90
23873;DHT22;42884;50.718;4.630;2024-01-27T04:51:58;0.10;99.90
23873;DHT22;42884;50.718;4.630;2024-01-27T04:54:24;0.70;99.90
23873;DHT22;42884;50.718;4.630;2024-01-27T04:56:50;0.70;99.90
23873;DHT22;42884;50.718;4.630;2024-01-27T04:59:16;0.70;99.90
23873;DHT22;42884;50.718;4.630;2024-01-27T05:01:45;0.80;99.90
23873;DHT22;42884;50.718;4.630;2024-01-27T05:04:11;0.80;99.90
23873;DHT22;42884;50.718;4.630;2024-01-27T05:06:37;0.70;99.90
23873;DHT22;42884;50.718;4.630;2024-01-27T05:09:04;0.70;99.90
23873;DHT22;42884;50.718;4.630;2024-01-27T05:11:31;0.70;99.90
23873;DHT22;42884;50.718;4.630;2024-01-27T05:13:58;0.70;99.90
23873;DHT22;42884;50.718;4.630;2024-01-27T05:16:24;0.70;99.90
23873;DHT22;42884;50.718;4.630;2024-01-27T05:18:49;0.70;99.90
23873;DHT22;42884;50.718;4.630;2024-01-27T05:21:15;0.70;99.90
23873;DHT22;42884;50.718;4.630;2024-01-27T05:23:41;0.60;99.90
23873;DHT22;42884;50.718;4.630;2024-01-27T05:26:06;0.60;99.90
23873;DHT22;42884;50.718;4.630;2024-01-27T05:28:32;0.60;99.90
23873;DHT22;42884;50.718;4.630;2024-01-27T05:30:58;0.60;99.90
23873;DHT22;42884;50.718;4.630;2024-01-27T05:33:24;0.60;99.90
23873;DHT22;42884;50.718;4.630;2024-01-27T05:35:50;0.60;99.90
23873;DHT22;42884;50.718;4.630;2024-01-27T05:38:15;0.50;99.90
23873;DHT22;42884;50.718;4.630;2024-01-27T05:40:41;0.50;99.90
23873;DHT22;42884;50.718;4.630;2024-01-27T05:43:07;0.50;99.90
23873;DHT22;42884;50.718;4.630;2024-01-27T05:45:33;0.50;99.90
23873;DHT22;42884;50.718;4.630;2024-01-27T05:47:58;0.50;99.90
23873;DHT22;42884;50.718;4.630;2024-01-27T05:50:24;0.60;99.90
23873;DHT22;42884;50.718;4.630;2024-01-27T05:52:50;0.40;99.90
23873;DHT22;42884;50.718;4.630;2024-01-27T05:55:16;0.40;99.90
23873;DHT22;42884;50.718;4.630;2024-01-27T05:57:42;0.50;99.90
23873;DHT22;42884;50.718;4.630;2024-01-27T06:00:08;0.50;99.90
23873;DHT22;42884;50.718;4.630;2024-01-27T06:02:35;0.50;99.90
23873;DHT22;42884;50.718;4.630;2024-01-27T06:05:01;0.50;99.90
23873;DHT22;42884;50.718;4.630;2024-01-27T06:07:27;0.40;99.90
23873;DHT22;42884;50.718;4.630;2024-01-27T06:09:53;0.50;99.90
23873;DHT22;42884;50.718;4.630;2024-01-27T06:12:19;0.40;99.90
23873;DHT22;42884;50.718;4.630;2024-01-27T06:14:45;0.50;99.90
23873;DHT22;42884;50.718;4.630;2024-01-27T06:17:11;0.50;99.90
23873;DHT22;42884;50.718;4.630;2024-01-27T06:19:41;0.50;99.90
23873;DHT22;42884;50.718;4.630;2024-01-27T06:22:07;0.40;99.90
23873;DHT22;42884;50.718;4.630;2024-01-27T06:24:32;0.40;99.90
23873;DHT22;42884;50.718;4.630;2024-01-27T06:26:58;0.30;99.90
23873;DHT22;42884;50.718;4.630;2024-01-27T06:29:24;0.30;99.90
23873;DHT22;42884;50.718;4.630;2024-01-27T06:31:52;0.30;99.90
23873;DHT22;42884;50.718;4.630;2024-01-27T06:34:17;0.30;99.90
23873;DHT22;42884;50.718;4.630;2024-01-27T06:36:43;0.30;99.90
23873;DHT22;42884;50.718;4.630;2024-01-27T06:39:09;0.30;99.90
23873;DHT22;42884;50.718;4.630;2024-01-27T06:41:35;0.30;99.90
23873;DHT22;42884;50.718;4.630;2024-01-27T06:44:00;0.30;99.90
23873;DHT22;42884;50.718;4.630;2024-01-27T06:46:26;0.30;99.90
23873;DHT22;42884;50.718;4.630;2024-01-27T06:48:51;0.30;99.90
23873;DHT22;42884;50.718;4.630;2024-01-27T06:51:17;0.30;99.90
23873;DHT22;42884;50.718;4.630;2024-01-27T06:53:43;0.30;99.90
23873;DHT22;42884;50.718;4.630;2024-01-27T06:56:08;0.00;99.90
23873;DHT22;42884;50.718;4.630;2024-01-27T06:58:34;0.30;99.90
23873;DHT22;42884;50.718;4.630;2024-01-27T07:01:00;0.30;99.90
23873;DHT22;42884;50.718;4.630;2024-01-27T07:03:26;0.20;99.90
23873;DHT22;42884;50.718;4.630;2024-01-27T07:05:51;0.20;99.90
23873;DHT22;42884;50.718;4.630;2024-01-27T07:08:17;0.00;99.90
23873;DHT22;42884;50.718;4.630;2024-01-27T07:10:43;0.20;99.90
23873;DHT22;42884;50.718;4.630;2024-01-27T07:13:08;0.20;99.90
23873;DHT22;42884;50.718;4.630;2024-01-27T07:15:34;0.20;99.90
23873;DHT22;42884;50.718;4.630;2024-01-27T07:18:02;0.20;99.90
23873;DHT22;42884;50.718;4.630;2024-01-27T07:20:27;0.20;99.90
23873;DHT22;42884;50.718;4.630;2024-01-27T07:22:54;0.20;99.90
23873;DHT22;42884;50.718;4.630;2024-01-27T07:25:20;0.10;99.90
23873;DHT22;42884;50.718;4.630;2024-01-27T07:33:56;0.20;99.90
23873;DHT22;42884;50.718;4.630;2024-01-27T07:36:22;0.30;99.90
23873;DHT22;42884;50.718;4.630;2024-01-27T07:38:47;0.30;99.90
23873;DHT22;42884;50.718;4.630;2024-01-27T07:41:13;0.30;99.90
23873;DHT22;42884;50.718;4.630;2024-01-27T07:43:39;0.30;99.90
23873;DHT22;42884;50.718;4.630;2024-01-27T07:46:05;0.30;99.90
23873;DHT22;42884;50.718;4.630;2024-01-27T07:48:30;0.30;99.90
23873;DHT22;42884;50.718;4.630;2024-01-27T07:50:56;0.30;99.90
23873;DHT22;42884;50.718;4.630;2024-01-27T07:53:23;0.30;99.90
23873;DHT22;42884;50.718;4.630;2024-01-27T07:55:48;0.40;99.90
23873;DHT22;42884;50.718;4.630;2024-01-27T07:58:16;0.40;99.90
23873;DHT22;42884;50.718;4.630;2024-01-27T08:00:41;0.40;99.90
23873;DHT22;42884;50.718;4.630;2024-01-27T08:03:07;0.40;99.90
23873;DHT22;42884;50.718;4.630;2024-01-27T08:05:33;0.40;99.90
23873;DHT22;42884;50.718;4.630;2024-01-27T08:07:58;0.40;99.90
23873;DHT22;42884;50.718;4.630;2024-01-27T08:10:24;0.40;99.90
23873;DHT22;42884;50.718;4.630;2024-01-27T08:12:50;0.50;99.90
23873;DHT22;42884;50.718;4.630;2024-01-27T08:15:15;0.50;99.90
23873;DHT22;42884;50.718;4.630;2024-01-27T08:17:41;0.50;99.90
23873;DHT22;42884;50.718;4.630;2024-01-27T08:20:07;0.60;99.90
23873;DHT22;42884;50.718;4.630;2024-01-27T08:22:33;0.60;99.90
23873;DHT22;42884;50.718;4.630;2024-01-27T08:24:59;0.60;99.90
23873;DHT22;42884;50.718;4.630;2024-01-27T08:27:25;0.70;99.90
23873;DHT22;42884;50.718;4.630;2024-01-27T08:29:51;0.70;99.90
23873;DHT22;42884;50.718;4.630;2024-01-27T08:32:16;0.70;99.90
23873;DHT22;42884;50.718;4.630;2024-01-27T08:34:42;0.70;99.90
23873;DHT22;42884;50.718;4.630;2024-01-27T08:37:15;0.80;99.90
23873;DHT22;42884;50.718;4.630;2024-01-27T08:39:41;0.90;99.90
23873;DHT22;42884;50.718;4.630;2024-01-27T08:42:07;0.90;99.90
23873;DHT22;42884;50.718;4.630;2024-01-27T08:44:32;0.90;99.90
23873;DHT22;42884;50.718;4.630;2024-01-27T08:46:58;0.80;99.90
23873;DHT22;42884;50.718;4.630;2024-01-27T08:49:24;0.90;99.90
23873;DHT22;42884;50.718;4.630;2024-01-27T08:51:49;1.00;99.90
23873;DHT22;42884;50.718;4.630;2024-01-27T08:54:15;1.10;99.90
23873;DHT22;42884;50.718;4.630;2024-01-27T08:56:41;1.10;99.90
23873;DHT22;42884;50.718;4.630;2024-01-27T08:59:06;1.20;99.90
23873;DHT22;42884;50.718;4.630;2024-01-27T09:01:32;1.20;99.90
23873;DHT22;42884;50.718;4.630;2024-01-27T09:03:58;1.30;99.90
23873;DHT22;42884;50.718;4.630;2024-01-27T09:06:23;1.40;99.90
23873;DHT22;42884;50.718;4.630;2024-01-27T09:08:49;1.40;99.90
23873;DHT22;42884;50.718;4.630;2024-01-27T09:11:14;1.50;99.90
23873;DHT22;42884;50.718;4.630;2024-01-27T09:13:40;1.50;99.90
23873;DHT22;42884;50.718;4.630;2024-01-27T09:16:06;2.00;99.90
23873;DHT22;42884;50.718;4.630;2024-01-27T09:18:31;1.60;99.90
23873;DHT22;42884;50.718;4.630;2024-01-27T09:20:57;1.70;99.90
23873;DHT22;42884;50.718;4.630;2024-01-27T09:23:23;1.80;99.90
23873;DHT22;42884;50.718;4.630;2024-01-27T09:25:48;1.90;99.90
23873;DHT22;42884;50.718;4.630;2024-01-27T09:28:15;1.90;99.90
23873;DHT22;42884;50.718;4.630;2024-01-27T09:30:41;2.00;99.90
23873;DHT22;42884;50.718;4.630;2024-01-27T09:33:07;2.10;99.90
23873;DHT22;42884;50.718;4.630;2024-01-27T09:35:32;2.20;99.90
23873;DHT22;42884;50.718;4.630;2024-01-27T09:37:58;2.30;99.90
23873;DHT22;42884;50.718;4.630;2024-01-27T09:40:24;2.30;99.90
23873;DHT22;42884;50.718;4.630;2024-01-27T09:42:53;2.40;99.90
23873;DHT22;42884;50.718;4.630;2024-01-27T09:45:20;2.60;99.90
23873;DHT22;42884;50.718;4.630;2024-01-27T09:47:47;2.20;99.90
23873;DHT22;42884;50.718;4.630;2024-01-27T09:50:14;2.70;99.90
23873;DHT22;42884;50.718;4.630;2024-01-27T09:52:39;2.90;99.90
23873;DHT22;42884;50.718;4.630;2024-01-27T09:55:05;3.40;99.90
23873;DHT22;42884;50.718;4.630;2024-01-27T09:57:31;3.00;99.90
23873;DHT22;42884;50.718;4.630;2024-01-27T09:59:57;3.20;99.90
23873;DHT22;42884;50.718;4.630;2024-01-27T10:02:24;3.30;99.90
23873;DHT22;42884;50.718;4.630;2024-01-27T10:04:49;3.10;99.90
23873;DHT22;42884;50.718;4.630;2024-01-27T10:07:16;3.60;99.90
23873;DHT22;42884;50.718;4.630;2024-01-27T10:09:41;3.70;99.90
23873;DHT22;42884;50.718;4.630;2024-01-27T10:12:08;3.80;99.90
23873;DHT22;42884;50.718;4.630;2024-01-27T10:14:41;4.00;99.90
23873;DHT22;42884;50.718;4.630;2024-01-27T10:17:28;4.10;99.90
23873;DHT22;42884;50.718;4.630;2024-01-27T10:20:04;4.30;99.90
23873;DHT22;42884;50.718;4.630;2024-01-27T10:22:37;4.40;99.90
23873;DHT22;42884;50.718;4.630;2024-01-27T10:25:02;4.50;99.90
23873;DHT22;42884;50.718;4.630;2024-01-27T10:27:28;4.70;99.90
23873;DHT22;42884;50.718;4.630;2024-01-27T10:29:54;4.80;99.90
23873;DHT22;42884;50.718;4.630;2024-01-27T10:32:21;5.00;99.90
23873;DHT22;42884;50.718;4.630;2024-01-27T10:35:00;5.20;99.90
23873;DHT22;42884;50.718;4.630;2024-01-27T10:37:26;5.40;99.90
23873;DHT22;42884;50.718;4.630;2024-01-27T10:39:59;5.40;99.90
23873;DHT22;42884;50.718;4.630;2024-01-27T10:42:25;6.00;99.90
23873;DHT22;42884;50.718;4.630;2024-01-27T10:44:51;6.60;99.90
23873;DHT22;42884;50.718;4.630;2024-01-27T10:47:17;6.50;99.90
23873;DHT22;42884;50.718;4.630;2024-01-27T10:49:45;6.90;99.90
23873;DHT22;42884;50.718;4.630;2024-01-27T10:52:13;7.10;99.90
23873;DHT22;42884;50.718;4.630;2024-01-27T10:54:41;7.30;99.90
23873;DHT22;42884;50.718;4.630;2024-01-27T10:57:08;7.40;99.90
23873;DHT22;42884;50.718;4.630;2024-01-27T10:59:35;7.70;99.90
23873;DHT22;42884;50.718;4.630;2024-01-27T11:02:01;8.90;99.90
23873;DHT22;42884;50.718;4.630;2024-01-27T11:04:28;10.50;99.90
23873;DHT22;42884;50.718;4.630;2024-01-27T11:06:58;11.20;99.90
23873;DHT22;42884;50.718;4.630;2024-01-27T11:09:26;12.00;99.90
23873;DHT22;42884;50.718;4.630;2024-01-27T11:11:58;13.00;99.90
23873;DHT22;42884;50.718;4.630;2024-01-27T11:14:25;13.70;99.90
23873;DHT22;42884;50.718;4.630;2024-01-27T11:16:59;14.10;99.90
23873;DHT22;42884;50.718;4.630;2024-01-27T11:19:25;14.60;99.90
23873;DHT22;42884;50.718;4.630;2024-01-27T11:22:00;14.30;99.90
23873;DHT22;42884;50.718;4.630;2024-01-27T11:24:28;14.70;99.90
23873;DHT22;42884;50.718;4.630;2024-01-27T11:27:01;15.00;99.90
23873;DHT22;42884;50.718;4.630;2024-01-27T11:29:26;15.30;99.90
23873;DHT22;42884;50.718;4.630;2024-01-27T11:31:54;14.40;99.90
23873;DHT22;42884;50.718;4.630;2024-01-27T11:34:21;14.50;99.90
23873;DHT22;42884;50.718;4.630;2024-01-27T11:36:48;14.20;99.90
23873;DHT22;42884;50.718;4.630;2024-01-27T11:39:24;14.30;99.90
23873;DHT22;42884;50.718;4.630;2024-01-27T11:41:51;13.80;99.90
23873;DHT22;42884;50.718;4.630;2024-01-27T11:44:22;13.60;99.90
23873;DHT22;42884;50.718;4.630;2024-01-27T11:46:48;13.40;99.90
23873;DHT22;42884;50.718;4.630;2024-01-27T11:49:17;12.80;99.90
23873;DHT22;42884;50.718;4.630;2024-01-27T11:51:43;12.90;99.90
23873;DHT22;42884;50.718;4.630;2024-01-27T11:54:09;12.60;99.90
23873;DHT22;42884;50.718;4.630;2024-01-27T11:56:38;12.90;99.90
23873;DHT22;42884;50.718;4.630;2024-01-27T11:59:06;12.70;99.90
23873;DHT22;42884;50.718;4.630;2024-01-27T12:01:34;12.80;99.90
23873;DHT22;42884;50.718;4.630;2024-01-27T12:04:05;12.80;99.90
23873;DHT22;42884;50.718;4.630;2024-01-27T12:06:41;12.90;99.90
23873;DHT22;42884;50.718;4.630;2024-01-27T12:09:14;12.90;99.90
23873;DHT22;42884;50.718;4.630;2024-01-27T12:11:43;13.20;99.90
23873;DHT22;42884;50.718;4.630;2024-01-27T12:14:11;13.70;99.90
23873;DHT22;42884;50.718;4.630;2024-01-27T12:16:41;14.10;99.90
23873;DHT22;42884;50.718;4.630;2024-01-27T12:19:09;14.30;99.90
23873;DHT22;42884;50.718;4.630;2024-01-27T12:21:37;14.80;99.90
23873;DHT22;42884;50.718;4.630;2024-01-27T12:24:03;14.90;99.90
23873;DHT22;42884;50.718;4.630;2024-01-27T12:26:31;16.40;99.90
23873;DHT22;42884;50.718;4.630;2024-01-27T12:28:57;17.10;99.90
23873;DHT22;42884;50.718;4.630;2024-01-27T12:31:25;17.70;99.90
23873;DHT22;42884;50.718;4.630;2024-01-27T12:33:56;18.30;99.90
23873;DHT22;42884;50.718;4.630;2024-01-27T12:36:22;17.10;99.90
23873;DHT22;42884;50.718;4.630;2024-01-27T12:38:57;16.70;99.90
23873;DHT22;42884;50.718;4.630;2024-01-27T12:41:24;17.30;99.90
23873;DHT22;42884;50.718;4.630;2024-01-27T12:43:50;17.10;99.90
23873;DHT22;42884;50.718;4.630;2024-01-27T12:46:16;17.70;99.90
23873;DHT22;42884;50.718;4.630;2024-01-27T12:48:44;17.90;99.90
23873;DHT22;42884;50.718;4.630;2024-01-27T12:51:12;18.00;99.90
23873;DHT22;42884;50.718;4.630;2024-01-27T12:53:39;17.20;99.90
23873;DHT22;42884;50.718;4.630;2024-01-27T12:56:10;16.80;99.90
23873;DHT22;42884;50.718;4.630;2024-01-27T12:58:36;16.90;99.90
23873;DHT22;42884;50.718;4.630;2024-01-27T13:01:03;16.90;99.90
23873;DHT22;42884;50.718;4.630;2024-01-27T13:03:29;17.30;99.90
23873;DHT22;42884;50.718;4.630;2024-01-27T13:05:57;17.40;99.90
23873;DHT22;42884;50.718;4.630;2024-01-27T13:08:26;17.70;99.90
23873;DHT22;42884;50.718;4.630;2024-01-27T13:10:52;18.10;99.70
23873;DHT22;42884;50.718;4.630;2024-01-27T13:13:18;17.70;99.40
23873;DHT22;42884;50.718;4.630;2024-01-27T13:15:44;18.00;99.60
23873;DHT22;42884;50.718;4.630;2024-01-27T13:18:10;18.30;99.40
23873;DHT22;42884;50.718;4.630;2024-01-27T13:20:37;18.60;99.90
23873;DHT22;42884;50.718;4.630;2024-01-27T13:23:08;18.90;98.90
23873;DHT22;42884;50.718;4.630;2024-01-27T13:25:34;18.90;98.00
23873;DHT22;42884;50.718;4.630;2024-01-27T13:28:00;18.70;97.70
23873;DHT22;42884;50.718;4.630;2024-01-27T13:30:25;19.20;99.40
23873;DHT22;42884;50.718;4.630;2024-01-27T13:32:52;19.80;98.40
23873;DHT22;42884;50.718;4.630;2024-01-27T13:35:18;19.20;97.60
23873;DHT22;42884;50.718;4.630;2024-01-27T13:37:44;19.50;98.20
23873;DHT22;42884;50.718;4.630;2024-01-27T13:40:11;19.80;98.30
23873;DHT22;42884;50.718;4.630;2024-01-27T13:42:37;19.70;98.20
23873;DHT22;42884;50.718;4.630;2024-01-27T13:45:03;19.20;97.40
23873;DHT22;42884;50.718;4.630;2024-01-27T13:47:29;18.30;97.30
23873;DHT22;42884;50.718;4.630;2024-01-27T13:49:55;16.50;98.40
23873;DHT22;42884;50.718;4.630;2024-01-27T13:52:21;16.30;99.90
23873;DHT22;42884;50.718;4.630;2024-01-27T13:54:51;16.00;99.90
23873;DHT22;42884;50.718;4.630;2024-01-27T13:57:21;15.90;99.90
23873;DHT22;42884;50.718;4.630;2024-01-27T13:59:47;15.60;99.90
23873;DHT22;42884;50.718;4.630;2024-01-27T14:02:17;15.50;99.90
23873;DHT22;42884;50.718;4.630;2024-01-27T14:04:42;15.60;99.90
23873;DHT22;42884;50.718;4.630;2024-01-27T14:07:08;15.40;99.90
23873;DHT22;42884;50.718;4.630;2024-01-27T14:09:35;15.50;99.90
23873;DHT22;42884;50.718;4.630;2024-01-27T14:12:00;16.20;99.90
23873;DHT22;42884;50.718;4.630;2024-01-27T14:14:26;16.10;99.90
23873;DHT22;42884;50.718;4.630;2024-01-27T14:16:52;16.00;99.90
23873;DHT22;42884;50.718;4.630;2024-01-27T14:19:19;16.40;99.90
23873;DHT22;42884;50.718;4.630;2024-01-27T14:21:45;17.00;99.90
23873;DHT22;42884;50.718;4.630;2024-01-27T14:24:13;17.70;99.90
23873;DHT22;42884;50.718;4.630;2024-01-27T14:26:39;17.50;98.40
23873;DHT22;42884;50.718;4.630;2024-01-27T14:29:05;17.80;99.70
23873;DHT22;42884;50.718;4.630;2024-01-27T14:31:31;17.40;99.30
23873;DHT22;42884;50.718;4.630;2024-01-27T14:33:57;16.90;99.30
23873;DHT22;42884;50.718;4.630;2024-01-27T14:36:23;16.60;99.30
23873;DHT22;42884;50.718;4.630;2024-01-27T14:38:50;15.80;99.20
23873;DHT22;42884;50.718;4.630;2024-01-27T14:41:15;15.60;99.90
23873;DHT22;42884;50.718;4.630;2024-01-27T14:43:44;14.80;99.90
23873;DHT22;42884;50.718;4.630;2024-01-27T14:46:10;14.70;99.90
23873;DHT22;42884;50.718;4.630;2024-01-27T14:48:36;14.30;99.90
23873;DHT22;42884;50.718;4.630;2024-01-27T14:51:04;14.10;99.90
23873;DHT22;42884;50.718;4.630;2024-01-27T14:53:32;13.80;99.90
23873;DHT22;42884;50.718;4.630;2024-01-27T14:55:58;13.40;99.90
23873;DHT22;42884;50.718;4.630;2024-01-27T14:58:24;13.20;99.90
23873;DHT22;42884;50.718;4.630;2024-01-27T15:00:54;13.00;99.90
23873;DHT22;42884;50.718;4.630;2024-01-27T15:03:20;12.80;99.90
23873;DHT22;42884;50.718;4.630;2024-01-27T15:05:47;12.60;99.90
23873;DHT22;42884;50.718;4.630;2024-01-27T15:08:14;12.40;99.90
23873;DHT22;42884;50.718;4.630;2024-01-27T15:10:40;12.30;99.90
23873;DHT22;42884;50.718;4.630;2024-01-27T15:13:06;12.20;99.90
23873;DHT22;42884;50.718;4.630;2024-01-27T15:15:32;12.00;99.90
23873;DHT22;42884;50.718;4.630;2024-01-27T15:17:58;11.60;99.90
23873;DHT22;42884;50.718;4.630;2024-01-27T15:20:26;11.50;99.90
23873;DHT22;42884;50.718;4.630;2024-01-27T15:22:53;11.30;99.90
23873;DHT22;42884;50.718;4.630;2024-01-27T15:25:19;11.10;99.90
23873;DHT22;42884;50.718;4.630;2024-01-27T15:27:45;11.00;99.90
23873;DHT22;42884;50.718;4.630;2024-01-27T15:30:11;10.70;99.90
23873;DHT22;42884;50.718;4.630;2024-01-27T15:32:37;10.60;99.90
23873;DHT22;42884;50.718;4.630;2024-01-27T15:35:03;10.40;99.90
23873;DHT22;42884;50.718;4.630;2024-01-27T15:37:31;10.20;99.90
23873;DHT22;42884;50.718;4.630;2024-01-27T15:39:57;10.10;99.90
23873;DHT22;42884;50.718;4.630;2024-01-27T15:42:23;10.00;99.90